Sturgeon Lake, MN (55783)

6:49 AM CST on March 05, 2015 (GMT -0600)
RAWS MOOSE LAKE MN US | Change Station
CLOSE
Current Station
Personal Weather Station
Location: Moose Lake, MN
Elevation: 1069 ft
Nearby Weather Stations

Elev 1069 ft 46.42 °N, 92.80 °W | Updated 41 minutes ago

Clear
Clear
-20 °F
Feels Like -20 °F
N
1
Wind Variable Wind from SSW
Gusts 2.0 mph

Today
High -- | Low -- °F
--% Chance of Precip.
Yesterday
High -- | Low -- °F
Precip. -- in
6:43 AM 6:02 PM
Full, 100% visible
Pressure 30.38 in
Visibility 10.0 miles
Clouds Scattered Clouds 11000 ft
Windchill -20 °F
Dew Point -28 °F
Humidity 66%
Rainfall in
Snow Depth Not available.
UV 0 out of 12
Pollen .10 out of 12
Air Quality Not available.
Flu Activity Not available.
METAR KMZH 051231Z AUTO 00000KT 10SM SCT110 M28/M32 A3038 RMK AO2

More Conditions Fewer Conditions

Pressure 30.38 in
Visibility 10.0 miles
Clouds Scattered Clouds 11000 ft
Windchill -20 °F
Dew Point -28 °F
Humidity 66%
Rainfall in
Snow Depth Not available.
UV 0 out of 12
Pollen .10 out of 12
Air Quality Not available.
Flu Activity Not available.
METAR KMZH 051231Z AUTO 00000KT 10SM SCT110 M28/M32 A3038 RMK AO2

More Conditions Fewer Conditions

10-Day Weather Forecast

Almanac

Astronomy

Mar. 05, 2015 Rise Set
Actual Time
Civil Twilight
Nautical Twilight
Astronomical Twilight
Moon
Length of Visible Light
Length of Day
Tomorrow will be .
, % of the Moon is Illuminated

Today's Extremes

State Highs State Lows

Community

WunderPhotos

Upload Photos

1,802,737 photos uploaded!

WunderBlogs® & News

Nearby

Air Quality

  Air Quality AQ Index Pollutant
Not available.

Snow Depth

Station Depth Elevation

Earthquake Activity

City Distance Mag. Time & Date
Minimum magnitude displayed is 2.5.

Coastal Water Temperatures

Place Temperature

Nearby Weather Stations